Portada
METAR-TAF:

METAR-TAF

Aeroports :

Chapecó, Santa Catarina, Brasil

latitud: 27-08-02S, longitud: 052-39-43W, altitud: 654 m

Observació

L'informe es va fer fa 1 hora i 17 minuts, a les 14:00 UTC
Vent 10 kt del Nord-Est
Temperatura 22°C
Humitat 50%
Pressió 1019 hPa
Visibilitat 10 km o més
sense núvols per sota de 1500 mi sense presència de cumulonimbus.

METAR: SBCH 211400Z 04010KT CAVOK 22/11 Q1019

Hora: 12:17 (15:17 UTC)


TAF: manca

Observacions i pronòstics meteorològics de més de 4000 aeroports (METAR i TAF).

Les estacions disponibles són els punts grocs i vermells al mapa.

Posi el ratolí al punt desitjat per veure el nom de l'estació.

Feu clic per veure les observacions i els pronòstics meteorològics.

Per canviar el mapa: feu clic els botons verds amb una creu de color negre per apropar; al botó verd amb un guió per allunyar la imatge; o en les fletxes verdes per a mapes adjacents.


METAR-TAF: